createdAt,value
2022-08-15T00:01:44.371Z,99169.84
2022-08-15T00:06:49.328Z,99171.63
2022-08-15T00:11:56.773Z,99157.38
2022-08-15T00:17:00.350Z,99169.66
2022-08-15T00:22:15.054Z,99162.09
2022-08-15T00:27:26.212Z,99159.63
2022-08-15T00:33:02.560Z,99164.00
2022-08-15T00:38:12.372Z,99157.19
2022-08-15T00:43:17.736Z,99149.94
2022-08-15T00:48:38.973Z,99142.19
2022-08-15T00:53:44.150Z,99157.19
2022-08-15T00:58:55.653Z,99153.88
2022-08-15T01:03:59.508Z,99160.28
2022-08-15T01:09:07.858Z,99153.22
2022-08-15T01:14:56.991Z,99153.31
2022-08-15T01:19:43.997Z,99151.09
2022-08-15T01:25:25.494Z,99153.25
2022-08-15T01:31:01.857Z,99147.66
2022-08-15T01:35:52.933Z,99142.56
2022-08-15T01:41:05.351Z,99144.38
2022-08-15T01:46:21.666Z,99153.13
2022-08-15T01:51:26.275Z,99140.81
2022-08-15T01:56:37.178Z,99145.31
2022-08-15T02:01:54.165Z,99141.75
2022-08-15T02:07:00.318Z,99151.25
2022-08-15T02:12:19.489Z,99155.66
2022-08-15T02:17:32.627Z,99153.88
2022-08-15T02:22:35.836Z,99150.59
2022-08-15T02:27:42.327Z,99147.94
2022-08-15T02:32:47.468Z,99146.94
2022-08-15T02:37:58.458Z,99150.91
2022-08-15T02:43:08.335Z,99148.88
2022-08-15T02:48:27.848Z,99150.91
2022-08-15T02:53:44.188Z,99143.88
2022-08-15T02:58:52.123Z,99145.72
2022-08-15T03:03:57.539Z,99137.16
2022-08-15T03:09:08.080Z,99131.81
2022-08-15T03:14:33.654Z,99121.84
2022-08-15T03:19:39.897Z,99119.94
2022-08-15T03:24:47.537Z,99116.94
2022-08-15T03:29:58.761Z,99124.06
2022-08-15T03:35:04.497Z,99115.25
2022-08-15T03:40:13.375Z,99115.81
2022-08-15T03:45:21.708Z,99120.41
2022-08-15T03:50:35.818Z,99118.06
2022-08-15T03:55:55.002Z,99111.44
2022-08-15T04:01:00.882Z,99113.88
2022-08-15T04:06:14.399Z,99111.44
2022-08-15T04:11:21.075Z,99120.88
2022-08-15T04:17:02.385Z,99115.00
2022-08-15T04:21:50.824Z,99110.00
2022-08-15T04:27:00.963Z,99102.22
2022-08-15T04:32:06.573Z,99113.28
2022-08-15T04:37:12.468Z,99110.91
2022-08-15T04:42:19.121Z,99115.31
2022-08-15T04:47:35.515Z,99113.59
2022-08-15T04:52:48.265Z,99128.44
2022-08-15T04:57:54.466Z,99123.84
2022-08-15T05:03:01.963Z,99114.72
2022-08-15T05:08:08.855Z,99117.00
2022-08-15T05:13:20.599Z,99118.94
2022-08-15T05:18:25.967Z,99113.84
2022-08-15T05:23:33.452Z,99113.47
2022-08-15T05:28:57.680Z,99105.19
2022-08-15T05:34:04.442Z,99114.63
2022-08-15T05:39:20.138Z,99119.03
2022-08-15T05:44:38.153Z,99121.84
2022-08-15T05:49:56.766Z,99121.34
2022-08-15T05:55:16.109Z,99107.00
2022-08-15T06:00:19.323Z,99109.19
2022-08-15T06:05:33.518Z,99097.84
2022-08-15T06:10:51.216Z,99102.19
2022-08-15T06:15:59.656Z,99094.97
2022-08-15T06:21:09.916Z,99097.16
2022-08-15T06:26:40.631Z,99091.09
2022-08-15T06:31:48.897Z,99087.97
2022-08-15T06:37:06.521Z,99078.91
2022-08-15T06:42:20.687Z,99077.38
2022-08-15T06:47:34.594Z,99090.56
2022-08-15T06:52:41.658Z,99096.00
2022-08-15T06:57:49.612Z,99092.28
2022-08-15T07:03:10.498Z,99087.25
2022-08-15T07:08:19.954Z,99084.38
2022-08-15T07:13:27.349Z,99079.81
2022-08-15T07:18:36.065Z,99077.66
2022-08-15T07:24:33.387Z,99069.22
2022-08-15T07:29:56.256Z,99052.97
2022-08-15T07:35:11.072Z,99061.34
2022-08-15T07:40:28.437Z,99066.94
2022-08-15T07:45:36.510Z,99065.59
2022-08-15T07:50:49.377Z,99061.50
2022-08-15T07:56:45.363Z,99064.41
2022-08-15T08:01:37.143Z,99055.22
2022-08-15T08:06:51.235Z,99053.56
2022-08-15T08:12:06.526Z,99043.06
2022-08-15T08:17:16.161Z,99045.75
2022-08-15T08:22:25.006Z,99047.56
2022-08-15T08:27:47.719Z,99046.88
2022-08-15T08:33:00.760Z,99039.84
2022-08-15T08:39:04.958Z,99047.31
2022-08-15T08:43:44.731Z,99034.88
2022-08-15T08:54:24.594Z,99036.34
2022-08-15T08:59:42.060Z,99033.50
2022-08-15T09:04:50.554Z,99026.72
2022-08-15T09:09:57.439Z,99028.34
2022-08-15T09:15:14.869Z,99029.34
2022-08-15T09:20:34.625Z,99023.81
2022-08-15T09:25:40.224Z,99028.84
2022-08-15T09:30:50.003Z,99026.28
2022-08-15T09:36:24.787Z,99030.59
2022-08-15T09:41:54.520Z,99022.22
2022-08-15T09:47:27.037Z,99029.16
2022-08-15T09:52:52.151Z,99027.13
2022-08-15T09:57:56.509Z,99011.25
2022-08-15T10:03:05.388Z,99005.97
2022-08-15T10:08:09.107Z,98994.53
2022-08-15T10:13:19.739Z,98998.63
2022-08-15T10:19:00.102Z,98986.72
2022-08-15T10:24:28.486Z,98987.06
2022-08-15T10:29:34.233Z,98978.13
2022-08-15T10:34:39.937Z,98962.38
2022-08-15T10:39:54.589Z,98948.59
2022-08-15T10:45:07.319Z,98942.38
2022-08-15T10:50:23.377Z,98951.06
2022-08-15T10:55:55.898Z,98939.25
2022-08-15T11:01:03.944Z,98936.00
2022-08-15T11:06:09.479Z,98935.66
2022-08-15T11:11:20.356Z,98933.06
2022-08-15T11:16:36.803Z,98931.75
2022-08-15T11:21:44.048Z,98935.47
2022-08-15T11:26:53.705Z,98929.34
2022-08-15T11:32:00.675Z,98924.88
2022-08-15T11:37:07.087Z,98905.50
2022-08-15T11:42:25.067Z,98910.56
2022-08-15T11:47:30.318Z,98903.22
2022-08-15T11:52:42.059Z,98898.25
2022-08-15T11:57:54.419Z,98892.72
2022-08-15T12:03:24.074Z,98882.53
2022-08-15T12:08:28.627Z,98896.94
2022-08-15T12:13:35.651Z,98892.44
2022-08-15T12:18:49.929Z,98890.72
2022-08-15T12:23:56.460Z,98882.78
2022-08-15T12:29:00.569Z,98877.78
2022-08-15T12:34:28.066Z,98873.22
2022-08-15T12:39:29.398Z,98866.75
2022-08-15T12:44:38.763Z,98882.28
2022-08-15T12:49:47.037Z,98889.72
2022-08-15T12:54:52.658Z,98914.13
2022-08-15T12:59:57.389Z,98931.16
2022-08-15T13:05:01.711Z,98964.88
2022-08-15T13:11:01.634Z,99003.09
2022-08-15T13:15:30.680Z,99030.28
2022-08-15T13:20:58.096Z,99073.03
2022-08-15T13:26:01.357Z,99057.44
2022-08-15T13:31:27.631Z,99061.03
2022-08-15T13:36:31.918Z,99069.66
2022-08-15T13:41:47.840Z,99055.19
2022-08-15T13:46:54.982Z,99033.22
2022-08-15T13:52:24.929Z,99025.13
2022-08-15T13:57:26.557Z,99033.72
2022-08-15T14:02:37.315Z,99060.72
2022-08-15T14:07:53.456Z,99066.22
2022-08-15T14:13:13.629Z,99065.06
2022-08-15T14:18:50.941Z,99079.25
2022-08-15T14:23:50.408Z,99070.88
2022-08-15T14:34:54.511Z,99070.97
2022-08-15T14:39:43.417Z,99067.50
2022-08-15T14:44:49.771Z,99043.38
2022-08-15T14:50:52.299Z,99048.69
2022-08-15T14:55:18.791Z,99032.66
2022-08-15T15:00:24.691Z,99039.81
2022-08-15T15:06:06.778Z,99046.59
2022-08-15T15:10:54.374Z,99032.19
2022-08-15T15:16:40.399Z,99019.88
2022-08-15T15:21:21.962Z,99015.84
2022-08-15T15:26:37.724Z,99001.38
2022-08-15T15:31:47.951Z,98996.06
2022-08-15T15:37:04.436Z,98989.41
2022-08-15T15:42:16.238Z,98992.09
2022-08-15T15:47:24.899Z,98991.59
2022-08-15T15:52:32.796Z,98986.28
2022-08-15T15:58:00.826Z,98991.94
2022-08-15T16:03:04.778Z,98997.84
2022-08-15T16:08:32.767Z,99004.28
2022-08-15T16:13:40.134Z,99001.88
2022-08-15T16:18:47.170Z,99016.91
2022-08-15T16:23:55.475Z,99016.69
2022-08-15T16:29:03.705Z,99026.66
2022-08-15T16:34:14.984Z,99021.56
2022-08-15T16:39:28.418Z,99026.63
2022-08-15T16:44:35.255Z,99032.75
2022-08-15T16:49:47.213Z,99034.56
2022-08-15T16:55:05.045Z,99042.84
2022-08-15T17:00:18.525Z,99056.41
2022-08-15T17:05:43.987Z,99070.53
2022-08-15T17:10:57.215Z,99087.88
2022-08-15T17:16:07.816Z,99100.69
2022-08-15T17:21:21.163Z,99093.59
2022-08-15T17:26:58.159Z,99086.94
2022-08-15T17:31:53.448Z,99087.47
2022-08-15T17:36:57.421Z,99088.53
2022-08-15T17:42:02.858Z,99076.25
2022-08-15T17:47:12.442Z,99069.81
2022-08-15T17:52:19.398Z,99063.09
2022-08-15T17:57:37.956Z,99049.13
2022-08-15T18:02:49.243Z,99056.09
2022-08-15T18:07:59.301Z,99055.03
2022-08-15T18:13:11.739Z,99048.81
2022-08-15T18:18:17.348Z,99064.25
2022-08-15T18:23:53.613Z,99068.47
2022-08-15T18:28:58.505Z,99063.56
2022-08-15T18:34:07.657Z,99081.22
2022-08-15T18:39:54.417Z,99086.22
2022-08-15T18:44:58.610Z,99081.53
2022-08-15T18:50:44.941Z,99090.06
2022-08-15T18:55:43.905Z,99101.81
2022-08-15T19:00:58.187Z,99117.06
2022-08-15T19:06:23.549Z,99122.84
2022-08-15T19:11:42.810Z,99139.09
2022-08-15T19:22:19.001Z,99149.97
2022-08-15T19:24:27.150Z,99149.16
2022-08-15T19:27:41.911Z,99166.47
2022-08-15T19:33:09.166Z,99180.53
2022-08-15T19:38:18.175Z,99199.94
2022-08-15T19:43:33.355Z,99204.63
2022-08-15T19:48:43.770Z,99199.94
2022-08-15T19:55:21.544Z,99188.59
2022-08-15T19:59:24.206Z,99201.31
2022-08-15T20:04:44.004Z,99214.66
2022-08-15T20:09:56.435Z,99222.03
2022-08-15T20:15:13.845Z,99224.38
2022-08-15T20:20:28.744Z,99233.69
2022-08-15T20:25:39.704Z,99236.88
2022-08-15T20:30:48.834Z,99248.69
2022-08-15T20:35:59.004Z,99243.91
2022-08-15T20:41:04.800Z,99239.41
2022-08-15T20:46:21.622Z,99243.63
2022-08-15T20:52:00.361Z,99251.38
2022-08-15T20:56:52.710Z,99255.44
2022-08-15T21:01:56.456Z,99259.75
2022-08-15T21:07:10.009Z,99263.59
2022-08-15T21:12:46.474Z,99273.38
2022-08-15T21:18:03.708Z,99273.69
2022-08-15T21:23:23.541Z,99283.66
2022-08-15T21:28:47.929Z,99293.59
2022-08-15T21:34:32.404Z,99296.53
2022-08-15T21:39:54.450Z,99297.25
2022-08-15T21:45:10.185Z,99300.97
2022-08-15T21:50:42.261Z,99316.66
2022-08-15T21:55:53.228Z,99314.31
2022-08-15T22:01:14.495Z,99320.13
2022-08-15T22:06:23.691Z,99324.16
2022-08-15T22:11:38.131Z,99326.63
2022-08-15T22:16:43.303Z,99326.19
2022-08-15T22:21:48.935Z,99326.09
2022-08-15T22:26:53.338Z,99318.91
2022-08-15T22:32:12.000Z,99312.09
2022-08-15T22:37:21.053Z,99306.22
2022-08-15T22:42:43.048Z,99304.28
2022-08-15T22:47:48.053Z,99320.28
2022-08-15T22:52:54.922Z,99328.84
2022-08-15T22:58:00.416Z,99329.06
2022-08-15T23:03:04.453Z,99335.13
2022-08-15T23:08:14.029Z,99333.25
2022-08-15T23:13:29.298Z,99334.56
2022-08-15T23:18:36.395Z,99333.63
2022-08-15T23:23:48.929Z,99329.72
2022-08-15T23:29:01.036Z,99334.34
2022-08-15T23:34:06.842Z,99322.31
2022-08-15T23:39:13.561Z,99329.72
2022-08-15T23:44:19.607Z,99335.84
2022-08-15T23:49:22.389Z,99343.28
2022-08-15T23:54:32.670Z,99330.66
2022-08-15T23:59:42.039Z,99330.53
